createdAt,value
2018-11-14T00:00:21.160Z,9.02
2018-11-14T00:05:13.757Z,9.06
2018-11-14T00:10:07.334Z,9.11
2018-11-14T00:14:59.957Z,9.14
2018-11-14T00:19:52.537Z,9.21
2018-11-14T00:24:45.265Z,9.23
2018-11-14T00:29:37.820Z,9.25
2018-11-14T00:34:30.444Z,9.26
2018-11-14T00:39:23.051Z,9.26
2018-11-14T00:44:15.607Z,9.24
2018-11-14T00:49:08.173Z,9.24
2018-11-14T00:54:00.787Z,9.23
2018-11-14T00:58:53.812Z,9.23
2018-11-14T01:03:46.416Z,9.23
2018-11-14T01:08:39.035Z,9.23
2018-11-14T01:13:31.625Z,9.22
2018-11-14T01:18:24.234Z,9.19
2018-11-14T01:23:16.859Z,9.13
2018-11-14T01:28:09.475Z,9.09
2018-11-14T01:33:02.055Z,9.01
2018-11-14T01:37:55.529Z,8.94
2018-11-14T01:42:49.389Z,8.88
2018-11-14T01:47:42.026Z,8.82
2018-11-14T01:52:34.669Z,8.78
2018-11-14T01:57:27.281Z,8.73
2018-11-14T02:02:20.147Z,8.68
2018-11-14T02:07:12.741Z,8.62
2018-11-14T02:12:05.522Z,8.60
2018-11-14T02:16:58.117Z,8.58
2018-11-14T02:21:50.684Z,8.55
2018-11-14T02:26:43.281Z,8.52
2018-11-14T02:31:35.876Z,8.48
2018-11-14T02:36:28.514Z,8.44
2018-11-14T02:41:21.162Z,8.39
2018-11-14T02:46:13.785Z,8.36
2018-11-14T02:51:19.867Z,8.34
2018-11-14T02:56:12.483Z,8.29
2018-11-14T03:01:05.403Z,8.26
2018-11-14T03:05:57.982Z,8.23
2018-11-14T03:10:50.617Z,8.17
2018-11-14T03:15:43.230Z,8.12
2018-11-14T03:20:35.846Z,8.02
2018-11-14T03:25:28.445Z,7.97
2018-11-14T03:30:21.095Z,7.92
2018-11-14T03:35:14.253Z,7.90
2018-11-14T03:40:09.161Z,7.89
2018-11-14T03:45:01.879Z,7.84
2018-11-14T03:49:54.469Z,7.82
2018-11-14T03:54:47.057Z,7.80
2018-11-14T03:59:39.642Z,7.76
2018-11-14T04:04:32.231Z,7.75
2018-11-14T04:09:24.865Z,7.72
2018-11-14T04:14:17.538Z,7.70
2018-11-14T04:19:10.156Z,7.67
2018-11-14T04:24:02.757Z,7.64
2018-11-14T04:28:55.374Z,7.64
2018-11-14T04:33:48.293Z,7.61
2018-11-14T04:38:40.904Z,7.56
2018-11-14T04:43:33.553Z,7.50
2018-11-14T04:48:26.450Z,7.48
2018-11-14T04:53:19.092Z,7.44
2018-11-14T04:58:11.749Z,7.37
2018-11-14T05:03:05.259Z,7.31
2018-11-14T05:07:57.919Z,7.32
2018-11-14T05:12:51.177Z,7.30
2018-11-14T05:17:44.481Z,7.25
2018-11-14T05:22:37.088Z,7.27
2018-11-14T05:27:29.826Z,7.27
2018-11-14T05:32:22.433Z,7.27
2018-11-14T05:37:15.204Z,7.28
2018-11-14T05:42:07.882Z,7.26
2018-11-14T05:47:00.528Z,7.27
2018-11-14T05:51:53.161Z,7.22
2018-11-14T05:56:45.762Z,7.20
2018-11-14T06:01:38.388Z,7.16
2018-11-14T06:06:31.257Z,7.12
2018-11-14T06:11:24.065Z,7.12
2018-11-14T06:16:16.643Z,7.10
2018-11-14T06:21:09.434Z,7.10
2018-11-14T06:26:02.174Z,7.09
2018-11-14T06:30:54.904Z,7.10
2018-11-14T06:35:47.569Z,7.11
2018-11-14T06:40:40.224Z,7.12
2018-11-14T06:45:33.540Z,7.12
2018-11-14T06:50:26.368Z,7.17
2018-11-14T06:55:19.643Z,7.22
2018-11-14T07:00:34.281Z,7.25
2018-11-14T07:05:26.938Z,7.28
2018-11-14T07:10:20.959Z,7.30
2018-11-14T07:15:15.896Z,7.36
2018-11-14T07:20:16.744Z,7.40
2018-11-14T07:25:09.413Z,7.46
2018-11-14T07:30:02.181Z,7.55
2018-11-14T07:34:54.857Z,7.76
2018-11-14T07:39:47.741Z,7.97
2018-11-14T07:44:40.605Z,8.20
2018-11-14T07:49:33.414Z,8.35
2018-11-14T07:54:26.424Z,8.51
2018-11-14T07:59:19.237Z,8.61
2018-11-14T08:04:12.086Z,8.67
2018-11-14T08:09:06.650Z,8.82
2018-11-14T08:13:59.418Z,8.98
2018-11-14T08:18:52.385Z,9.03
2018-11-14T08:23:45.184Z,9.11
2018-11-14T08:28:37.845Z,9.23
2018-11-14T08:33:30.534Z,9.41
2018-11-14T08:38:23.261Z,9.75
2018-11-14T08:43:15.970Z,9.92
2018-11-14T08:48:08.937Z,10.23
2018-11-14T08:53:01.784Z,10.39
2018-11-14T08:57:54.469Z,10.46
2018-11-14T09:02:47.632Z,10.47
2018-11-14T09:07:40.385Z,10.28
2018-11-14T09:12:33.154Z,10.20
2018-11-14T09:17:25.708Z,10.16
2018-11-14T09:22:18.361Z,10.13
2018-11-14T09:27:11.013Z,10.20
2018-11-14T09:32:03.609Z,10.22
2018-11-14T09:36:56.228Z,10.42
2018-11-14T09:41:48.820Z,10.53
2018-11-14T09:46:41.404Z,10.84
2018-11-14T09:51:34.561Z,10.99
2018-11-14T09:56:27.249Z,11.12
2018-11-14T10:01:19.973Z,11.38
2018-11-14T10:06:12.615Z,11.72
2018-11-14T10:11:05.671Z,12.00
2018-11-14T10:15:58.521Z,12.27
2018-11-14T10:20:51.336Z,12.31
2018-11-14T10:25:44.049Z,12.42
2018-11-14T10:30:36.771Z,12.62
2018-11-14T10:35:29.552Z,12.93
2018-11-14T10:40:25.448Z,12.76
2018-11-14T10:45:19.456Z,12.65
2018-11-14T10:50:14.889Z,12.42
2018-11-14T10:55:08.355Z,12.28
2018-11-14T11:00:01.033Z,12.39
2018-11-14T11:04:59.569Z,12.35
2018-11-14T11:09:58.178Z,12.27
2018-11-14T11:15:27.873Z,11.83
2018-11-14T11:20:20.462Z,11.53
2018-11-14T11:25:13.074Z,11.42
2018-11-14T11:30:08.421Z,11.49
2018-11-14T11:35:01.121Z,11.56
2018-11-14T11:39:53.697Z,11.56
2018-11-14T11:44:46.365Z,11.53
2018-11-14T11:49:39.033Z,11.60
2018-11-14T11:54:31.708Z,11.56
2018-11-14T11:59:24.347Z,11.61
2018-11-14T12:04:16.974Z,11.66
2018-11-14T12:09:10.850Z,11.67
2018-11-14T12:14:04.349Z,11.66
2018-11-14T12:18:57.020Z,11.71
2018-11-14T12:23:49.640Z,11.73
2018-11-14T12:28:42.284Z,11.66
2018-11-14T12:33:34.916Z,11.67
2018-11-14T12:38:27.559Z,11.54
2018-11-14T12:43:20.430Z,11.48
2018-11-14T12:48:13.196Z,11.20
2018-11-14T12:53:05.955Z,11.14
2018-11-14T12:57:58.713Z,10.99
2018-11-14T13:02:51.353Z,10.98
2018-11-14T13:07:44.454Z,10.93
2018-11-14T13:12:37.119Z,10.98
2018-11-14T13:17:30.296Z,11.04
2018-11-14T13:22:22.955Z,11.12
2018-11-14T13:27:15.617Z,11.20
2018-11-14T13:32:08.586Z,11.41
2018-11-14T13:37:01.277Z,11.74
2018-11-14T13:41:53.919Z,12.02
2018-11-14T13:46:46.561Z,12.29
2018-11-14T13:51:39.337Z,12.44
2018-11-14T13:56:32.022Z,12.34
2018-11-14T14:01:24.751Z,12.27
2018-11-14T14:06:17.538Z,12.30
2018-11-14T14:11:10.261Z,12.27
2018-11-14T14:16:02.913Z,12.21
2018-11-14T14:20:55.562Z,12.12
2018-11-14T14:25:48.217Z,12.02
2018-11-14T14:30:40.894Z,11.95
2018-11-14T14:35:33.444Z,11.86
2018-11-14T14:40:26.013Z,11.77
2018-11-14T14:45:22.086Z,11.69
2018-11-14T14:50:15.978Z,11.58
2018-11-14T14:55:12.958Z,11.50
2018-11-14T15:00:11.258Z,11.40
2018-11-14T15:05:04.737Z,11.29
2018-11-14T15:09:57.365Z,11.20
2018-11-14T15:14:50.098Z,11.10
2018-11-14T15:19:42.801Z,11.03
2018-11-14T15:24:35.498Z,10.98
2018-11-14T15:29:28.072Z,10.91
2018-11-14T15:34:20.704Z,10.84
2018-11-14T15:39:13.277Z,10.74
2018-11-14T15:44:05.990Z,10.66
2018-11-14T15:48:58.874Z,10.58
2018-11-14T15:53:51.610Z,10.53
2018-11-14T15:58:44.388Z,10.49
2018-11-14T16:03:37.140Z,10.43
2018-11-14T16:08:29.732Z,10.36
2018-11-14T16:13:22.476Z,10.27
2018-11-14T16:18:15.755Z,10.20
2018-11-14T16:23:08.445Z,10.14
2018-11-14T16:28:01.854Z,10.13
2018-11-14T16:32:55.795Z,10.12
2018-11-14T16:37:48.554Z,10.11
2018-11-14T16:42:41.241Z,10.11
2018-11-14T16:47:34.012Z,10.09
2018-11-14T16:52:26.762Z,10.10
2018-11-14T16:57:19.566Z,10.11
2018-11-14T17:02:12.313Z,10.09
2018-11-14T17:07:05.132Z,10.06
2018-11-14T17:11:57.876Z,10.01
2018-11-14T17:16:50.562Z,9.95
2018-11-14T17:21:43.181Z,9.89
2018-11-14T17:26:35.862Z,9.86
2018-11-14T17:31:28.488Z,9.79
2018-11-14T17:36:21.110Z,9.74
2018-11-14T17:41:13.960Z,9.71
2018-11-14T17:46:06.908Z,9.69
2018-11-14T17:50:59.945Z,9.65
2018-11-14T17:55:52.659Z,9.61
2018-11-14T18:00:45.208Z,9.58
2018-11-14T18:05:37.917Z,9.55
2018-11-14T18:10:31.245Z,9.50
2018-11-14T18:15:23.884Z,9.48
2018-11-14T18:20:18.704Z,9.46
2018-11-14T18:25:12.261Z,9.45
2018-11-14T18:30:09.569Z,9.44
2018-11-14T18:35:02.559Z,9.42
2018-11-14T18:39:55.209Z,9.41
2018-11-14T18:44:48.018Z,9.40
2018-11-14T18:49:47.229Z,9.38
2018-11-14T18:54:50.076Z,9.39
2018-11-14T18:59:47.933Z,9.40
2018-11-14T19:04:40.870Z,9.36
2018-11-14T19:09:33.546Z,9.33
2018-11-14T19:14:26.462Z,9.26
2018-11-14T19:19:19.090Z,9.20
2018-11-14T19:24:11.607Z,9.12
2018-11-14T19:29:04.536Z,9.09
2018-11-14T19:33:57.103Z,9.09
2018-11-14T19:38:49.816Z,9.10
2018-11-14T19:43:42.536Z,9.13
2018-11-14T19:48:35.234Z,9.15
2018-11-14T19:53:27.869Z,9.20
2018-11-14T19:58:20.543Z,9.19
2018-11-14T20:03:13.198Z,9.22
2018-11-14T20:08:05.964Z,9.24
2018-11-14T20:12:58.590Z,9.19
2018-11-14T20:17:51.537Z,9.14
2018-11-14T20:22:44.701Z,9.13
2018-11-14T20:27:37.861Z,9.11
2018-11-14T20:32:30.513Z,9.13
2018-11-14T20:37:23.281Z,9.14
2018-11-14T20:42:15.949Z,9.15
2018-11-14T20:47:08.630Z,9.15
2018-11-14T20:52:01.309Z,9.14
2018-11-14T20:56:53.964Z,9.10
2018-11-14T21:01:46.541Z,9.06
2018-11-14T21:06:39.311Z,9.02
2018-11-14T21:11:32.146Z,9.01
2018-11-14T21:16:24.962Z,9.02
2018-11-14T21:21:17.560Z,9.05
2018-11-14T21:26:10.220Z,9.04
2018-11-14T21:31:04.013Z,9.04
2018-11-14T21:35:56.965Z,9.04
2018-11-14T21:40:49.629Z,9.02
2018-11-14T21:45:42.275Z,9.04
2018-11-14T21:50:35.076Z,9.02
2018-11-14T21:55:27.745Z,9.05
2018-11-14T22:00:21.799Z,9.07
2018-11-14T22:05:14.505Z,9.09
2018-11-14T22:10:10.349Z,9.07
2018-11-14T22:15:02.953Z,9.05
2018-11-14T22:19:55.601Z,9.01
2018-11-14T22:24:48.364Z,8.99
2018-11-14T22:29:41.042Z,8.99
2018-11-14T22:34:34.130Z,8.99
2018-11-14T22:39:26.794Z,8.97
2018-11-14T22:44:19.518Z,8.97
2018-11-14T22:49:12.206Z,8.98
2018-11-14T22:54:04.929Z,8.98
2018-11-14T22:58:57.641Z,8.96
2018-11-14T23:03:50.431Z,8.95
2018-11-14T23:08:51.623Z,8.94
2018-11-14T23:18:53.658Z,8.97
2018-11-14T23:23:56.087Z,8.97
2018-11-14T23:28:49.813Z,8.98
2018-11-14T23:33:42.496Z,8.97
2018-11-14T23:38:37.871Z,8.96
2018-11-14T23:43:35.652Z,8.96
2018-11-14T23:48:32.775Z,8.92
2018-11-14T23:53:42.142Z,8.88
2018-11-14T23:58:37.042Z,8.84
